sensor_id;sensor_type;location;lat;lon;timestamp;pressure;altitude;pressure_sealevel;temperature;humidity
46291;BME280;32023;44.444;26.006;2023-05-23T00:01:09;100157.28;;;15.86;71.36
46291;BME280;32023;44.444;26.006;2023-05-23T00:03:40;100151.19;;;15.84;71.42
46291;BME280;32023;44.444;26.006;2023-05-23T00:06:07;100160.13;;;15.81;71.67
46291;BME280;32023;44.444;26.006;2023-05-23T00:08:36;100160.13;;;15.81;71.75
46291;BME280;32023;44.444;26.006;2023-05-23T00:11:08;100160.72;;;15.78;72.04
46291;BME280;32023;44.444;26.006;2023-05-23T00:13:35;100158.22;;;15.76;72.29
46291;BME280;32023;44.444;26.006;2023-05-23T00:16:08;100159.06;;;15.77;72.42
46291;BME280;32023;44.444;26.006;2023-05-23T00:18:39;100152.69;;;15.76;72.27
46291;BME280;32023;44.444;26.006;2023-05-23T00:21:16;100148.25;;;15.75;72.28
46291;BME280;32023;44.444;26.006;2023-05-23T00:23:43;100149.69;;;15.73;72.64
46291;BME280;32023;44.444;26.006;2023-05-23T00:26:25;100144.41;;;15.71;72.34
46291;BME280;32023;44.444;26.006;2023-05-23T00:28:55;100142.47;;;15.72;72.59
46291;BME280;32023;44.444;26.006;2023-05-23T00:31:31;100139.69;;;15.72;72.61
46291;BME280;32023;44.444;26.006;2023-05-23T00:34:02;100146.38;;;15.71;72.85
46291;BME280;32023;44.444;26.006;2023-05-23T00:36:28;100144.19;;;15.68;73.02
46291;BME280;32023;44.444;26.006;2023-05-23T00:38:55;100137.56;;;15.64;73.12
46291;BME280;32023;44.444;26.006;2023-05-23T00:41:22;100140.94;;;15.61;73.54
46291;BME280;32023;44.444;26.006;2023-05-23T00:44:01;100144.63;;;15.56;73.49
46291;BME280;32023;44.444;26.006;2023-05-23T00:46:35;100136.88;;;15.53;73.97
46291;BME280;32023;44.444;26.006;2023-05-23T00:49:02;100142.75;;;15.52;73.90
46291;BME280;32023;44.444;26.006;2023-05-23T00:51:28;100141.38;;;15.49;74.07
46291;BME280;32023;44.444;26.006;2023-05-23T00:54:03;100140.00;;;15.47;74.32
46291;BME280;32023;44.444;26.006;2023-05-23T00:56:36;100137.28;;;15.41;74.61
46291;BME280;32023;44.444;26.006;2023-05-23T00:59:04;100137.88;;;15.38;74.82
46291;BME280;32023;44.444;26.006;2023-05-23T01:01:33;100137.38;;;15.36;74.86
46291;BME280;32023;44.444;26.006;2023-05-23T01:04:02;100137.94;;;15.33;74.63
46291;BME280;32023;44.444;26.006;2023-05-23T01:06:30;100136.91;;;15.29;74.69
46291;BME280;32023;44.444;26.006;2023-05-23T01:09:03;100137.47;;;15.26;74.76
46291;BME280;32023;44.444;26.006;2023-05-23T01:11:37;100135.91;;;15.20;75.08
46291;BME280;32023;44.444;26.006;2023-05-23T01:14:34;100132.44;;;15.10;75.11
46291;BME280;32023;44.444;26.006;2023-05-23T01:17:18;100144.41;;;15.05;75.34
46291;BME280;32023;44.444;26.006;2023-05-23T01:20:03;100141.91;;;15.04;74.97
46291;BME280;32023;44.444;26.006;2023-05-23T01:28:11;100144.53;;;14.95;75.27
46291;BME280;32023;44.444;26.006;2023-05-23T01:30:39;100146.75;;;14.93;75.19
46291;BME280;32023;44.444;26.006;2023-05-23T01:33:12;100141.78;;;14.90;75.25
46291;BME280;32023;44.444;26.006;2023-05-23T01:35:45;100153.75;;;14.85;74.93
46291;BME280;32023;44.444;26.006;2023-05-23T01:38:11;100154.06;;;14.84;74.67
46291;BME280;32023;44.444;26.006;2023-05-23T01:40:41;100153.53;;;14.82;74.80
46291;BME280;32023;44.444;26.006;2023-05-23T01:43:07;100148.56;;;14.79;74.69
46291;BME280;32023;44.444;26.006;2023-05-23T01:45:34;100146.91;;;14.78;74.80
46291;BME280;32023;44.444;26.006;2023-05-23T01:48:02;100155.81;;;14.75;74.82
46291;BME280;32023;44.444;26.006;2023-05-23T01:50:43;100154.75;;;14.71;75.18
46291;BME280;32023;44.444;26.006;2023-05-23T01:53:22;100150.91;;;14.67;75.23
46291;BME280;32023;44.444;26.006;2023-05-23T01:55:49;100145.41;;;14.62;75.23
46291;BME280;32023;44.444;26.006;2023-05-23T01:58:16;100145.16;;;14.58;75.55
46291;BME280;32023;44.444;26.006;2023-05-23T02:00:43;100140.19;;;14.55;75.56
46291;BME280;32023;44.444;26.006;2023-05-23T02:03:10;100131.97;;;14.50;75.58
46291;BME280;32023;44.444;26.006;2023-05-23T02:05:41;100135.84;;;14.49;75.50
46291;BME280;32023;44.444;26.006;2023-05-23T02:08:08;100149.72;;;14.44;75.63
46291;BME280;32023;44.444;26.006;2023-05-23T02:10:36;100137.28;;;14.41;75.95
46291;BME280;32023;44.444;26.006;2023-05-23T02:13:06;100151.16;;;14.41;75.72
46291;BME280;32023;44.444;26.006;2023-05-23T02:15:32;100142.88;;;14.36;75.93
46291;BME280;32023;44.444;26.006;2023-05-23T02:18:02;100140.66;;;14.33;75.90
46291;BME280;32023;44.444;26.006;2023-05-23T02:20:30;100140.09;;;14.31;76.05
46291;BME280;32023;44.444;26.006;2023-05-23T02:22:59;100147.06;;;14.29;76.20
46291;BME280;32023;44.444;26.006;2023-05-23T02:25:33;100144.03;;;14.25;76.18
46291;BME280;32023;44.444;26.006;2023-05-23T02:27:59;100144.31;;;14.24;76.18
46291;BME280;32023;44.444;26.006;2023-05-23T02:30:26;100140.19;;;14.21;75.89
46291;BME280;32023;44.444;26.006;2023-05-23T02:33:06;100128.88;;;14.18;75.81
46291;BME280;32023;44.444;26.006;2023-05-23T02:35:40;100138.00;;;14.18;75.95
46291;BME280;32023;44.444;26.006;2023-05-23T02:38:08;100135.25;;;14.18;75.91
46291;BME280;32023;44.444;26.006;2023-05-23T02:40:59;100131.34;;;14.19;75.90
46291;BME280;32023;44.444;26.006;2023-05-23T02:43:26;100128.28;;;14.21;76.00
46291;BME280;32023;44.444;26.006;2023-05-23T02:45:52;100124.94;;;14.24;75.93
46291;BME280;32023;44.444;26.006;2023-05-23T02:48:19;100135.72;;;14.25;76.01
46291;BME280;32023;44.444;26.006;2023-05-23T02:50:49;100133.78;;;14.26;75.90
46291;BME280;32023;44.444;26.006;2023-05-23T02:53:20;100134.63;;;14.26;75.87
46291;BME280;32023;44.444;26.006;2023-05-23T02:55:56;100136.81;;;14.29;75.84
46291;BME280;32023;44.444;26.006;2023-05-23T02:58:22;100134.56;;;14.31;75.81
46291;BME280;32023;44.444;26.006;2023-05-23T03:01:14;100132.63;;;14.32;75.82
46291;BME280;32023;44.444;26.006;2023-05-23T03:03:41;100143.97;;;14.35;75.51
46291;BME280;32023;44.444;26.006;2023-05-23T03:06:10;100146.19;;;14.38;75.38
46291;BME280;32023;44.444;26.006;2023-05-23T03:08:44;100142.28;;;14.39;75.18
46291;BME280;32023;44.444;26.006;2023-05-23T03:11:17;100135.34;;;14.42;74.89
46291;BME280;32023;44.444;26.006;2023-05-23T03:13:57;100136.97;;;14.43;74.72
46291;BME280;32023;44.444;26.006;2023-05-23T03:16:42;100147.25;;;14.42;74.21
46291;BME280;32023;44.444;26.006;2023-05-23T03:19:45;100134.22;;;14.43;74.05
46291;BME280;32023;44.444;26.006;2023-05-23T03:22:32;100137.22;;;14.46;73.78
46291;BME280;32023;44.444;26.006;2023-05-23T03:25:16;100143.31;;;14.49;73.75
46291;BME280;32023;44.444;26.006;2023-05-23T03:27:58;100144.97;;;14.50;73.47
46291;BME280;32023;44.444;26.006;2023-05-23T03:30:45;100145.22;;;14.53;73.25
46291;BME280;32023;44.444;26.006;2023-05-23T03:33:29;100151.00;;;14.57;73.23
46291;BME280;32023;44.444;26.006;2023-05-23T03:36:33;100154.84;;;14.61;73.09
46291;BME280;32023;44.444;26.006;2023-05-23T03:38:56;100157.03;;;14.64;73.18
46291;BME280;32023;44.444;26.006;2023-05-23T03:41:25;100156.16;;;14.68;72.83
46291;BME280;32023;44.444;26.006;2023-05-23T03:43:57;100161.63;;;14.73;72.51
46291;BME280;32023;44.444;26.006;2023-05-23T03:46:29;100165.19;;;14.79;72.11
46291;BME280;32023;44.444;26.006;2023-05-23T03:49:11;100174.59;;;14.83;71.55
46291;BME280;32023;44.444;26.006;2023-05-23T03:51:38;100180.38;;;14.86;71.36
46291;BME280;32023;44.444;26.006;2023-05-23T03:54:07;100180.03;;;14.93;70.79
46291;BME280;32023;44.444;26.006;2023-05-23T03:56:57;100188.31;;;14.98;70.55
46291;BME280;32023;44.444;26.006;2023-05-23T03:59:29;100184.88;;;15.06;70.13
46291;BME280;32023;44.444;26.006;2023-05-23T04:02:04;100191.19;;;15.12;69.81
46291;BME280;32023;44.444;26.006;2023-05-23T04:04:41;100194.16;;;15.20;69.21
46291;BME280;32023;44.444;26.006;2023-05-23T04:07:30;100198.22;;;15.28;68.99
46291;BME280;32023;44.444;26.006;2023-05-23T04:10:01;100195.63;;;15.36;68.65
46291;BME280;32023;44.444;26.006;2023-05-23T04:12:37;100191.91;;;15.46;68.37
46291;BME280;32023;44.444;26.006;2023-05-23T04:15:07;100184.91;;;15.54;68.32
46291;BME280;32023;44.444;26.006;2023-05-23T04:17:36;100191.75;;;15.61;68.03
46291;BME280;32023;44.444;26.006;2023-05-23T04:20:07;100190.53;;;15.67;67.95
46291;BME280;32023;44.444;26.006;2023-05-23T04:22:37;100194.09;;;15.73;67.45
46291;BME280;32023;44.444;26.006;2023-05-23T04:25:09;100200.09;;;15.80;67.28
46291;BME280;32023;44.444;26.006;2023-05-23T04:27:39;100202.50;;;15.86;66.69
46291;BME280;32023;44.444;26.006;2023-05-23T04:30:17;100198.56;;;15.93;66.02
46291;BME280;32023;44.444;26.006;2023-05-23T04:32:52;100203.13;;;16.02;65.77
46291;BME280;32023;44.444;26.006;2023-05-23T04:35:24;100203.28;;;16.11;65.37
46291;BME280;32023;44.444;26.006;2023-05-23T04:42:07;100214.47;;;16.24;64.35
46291;BME280;32023;44.444;26.006;2023-05-23T04:44:36;100212.94;;;16.32;64.40
46291;BME280;32023;44.444;26.006;2023-05-23T04:47:02;100210.31;;;16.41;63.77
46291;BME280;32023;44.444;26.006;2023-05-23T04:49:32;100214.09;;;16.50;63.51
46291;BME280;32023;44.444;26.006;2023-05-23T04:52:01;100219.84;;;16.53;63.29
46291;BME280;32023;44.444;26.006;2023-05-23T04:54:27;100211.16;;;16.60;63.21
46291;BME280;32023;44.444;26.006;2023-05-23T04:57:00;100212.13;;;16.69;62.70
46291;BME280;32023;44.444;26.006;2023-05-23T04:59:29;100213.06;;;16.78;62.47
46291;BME280;32023;44.444;26.006;2023-05-23T05:01:58;100210.94;;;16.89;62.22
46291;BME280;32023;44.444;26.006;2023-05-23T05:04:29;100212.72;;;16.98;61.99
46291;BME280;32023;44.444;26.006;2023-05-23T05:07:00;100209.75;;;17.08;62.08
46291;BME280;32023;44.444;26.006;2023-05-23T05:09:29;100213.28;;;17.14;62.17
46291;BME280;32023;44.444;26.006;2023-05-23T05:11:56;100207.28;;;17.20;61.99
46291;BME280;32023;44.444;26.006;2023-05-23T05:14:26;100204.63;;;17.29;61.84
46291;BME280;32023;44.444;26.006;2023-05-23T05:16:56;100202.56;;;17.34;61.92
46291;BME280;32023;44.444;26.006;2023-05-23T05:19:28;100212.25;;;17.37;61.91
46291;BME280;32023;44.444;26.006;2023-05-23T05:22:12;100200.72;;;17.44;62.13
46291;BME280;32023;44.444;26.006;2023-05-23T05:24:40;100204.72;;;17.51;61.95
46291;BME280;32023;44.444;26.006;2023-05-23T05:27:06;100199.59;;;17.58;61.79
46291;BME280;32023;44.444;26.006;2023-05-23T05:29:34;100203.63;;;17.66;61.54
46291;BME280;32023;44.444;26.006;2023-05-23T05:32:03;100206.19;;;17.76;61.52
46291;BME280;32023;44.444;26.006;2023-05-23T05:34:30;100204.00;;;17.87;61.27
46291;BME280;32023;44.444;26.006;2023-05-23T05:37:00;100202.97;;;17.96;61.00
46291;BME280;32023;44.444;26.006;2023-05-23T05:39:30;100201.06;;;18.05;60.86
46291;BME280;32023;44.444;26.006;2023-05-23T05:41:59;100210.66;;;18.13;60.53
46291;BME280;32023;44.444;26.006;2023-05-23T05:44:30;100204.13;;;18.17;60.41
46291;BME280;32023;44.444;26.006;2023-05-23T05:47:06;100212.47;;;18.31;60.05
46291;BME280;32023;44.444;26.006;2023-05-23T05:49:45;100211.28;;;18.46;59.68
46291;BME280;32023;44.444;26.006;2023-05-23T05:52:14;100206.00;;;18.58;59.22
46291;BME280;32023;44.444;26.006;2023-05-23T05:54:40;100203.44;;;18.70;58.84
46291;BME280;32023;44.444;26.006;2023-05-23T05:57:11;100208.78;;;18.80;58.28
46291;BME280;32023;44.444;26.006;2023-05-23T05:59:48;100214.59;;;18.92;57.45
46291;BME280;32023;44.444;26.006;2023-05-23T06:02:40;100214.53;;;19.06;56.96
46291;BME280;32023;44.444;26.006;2023-05-23T06:05:15;100214.75;;;19.18;56.24
46291;BME280;32023;44.444;26.006;2023-05-23T06:08:02;100120.81;;;18.52;55.70
46291;BME280;32023;44.444;26.006;2023-05-23T06:10:29;100217.81;;;19.39;55.62
46291;BME280;32023;44.444;26.006;2023-05-23T06:13:01;100206.22;;;19.54;55.05
46291;BME280;32023;44.444;26.006;2023-05-23T06:15:27;100208.56;;;19.69;55.04
46291;BME280;32023;44.444;26.006;2023-05-23T06:17:54;100207.47;;;19.87;54.49
46291;BME280;32023;44.444;26.006;2023-05-23T06:20:20;100208.97;;;20.02;54.04
46291;BME280;32023;44.444;26.006;2023-05-23T06:22:48;100207.72;;;20.16;53.15
46291;BME280;32023;44.444;26.006;2023-05-23T06:25:14;100209.53;;;20.30;52.35
46291;BME280;32023;44.444;26.006;2023-05-23T06:27:40;100198.53;;;20.42;51.66
46291;BME280;32023;44.444;26.006;2023-05-23T06:30:07;100206.91;;;20.59;51.24
46291;BME280;32023;44.444;26.006;2023-05-23T06:32:40;100204.78;;;20.73;50.57
46291;BME280;32023;44.444;26.006;2023-05-23T06:35:09;100205.06;;;20.89;50.09
46291;BME280;32023;44.444;26.006;2023-05-23T06:37:38;100207.00;;;21.05;49.57
46291;BME280;32023;44.444;26.006;2023-05-23T06:40:34;100208.63;;;21.15;48.38
46291;BME280;32023;44.444;26.006;2023-05-23T06:43:01;100211.72;;;21.31;47.95
46291;BME280;32023;44.444;26.006;2023-05-23T06:45:40;100207.53;;;21.45;47.57
46291;BME280;32023;44.444;26.006;2023-05-23T06:48:06;100200.09;;;21.58;46.72
46291;BME280;32023;44.444;26.006;2023-05-23T06:50:33;100202.81;;;21.75;45.88
46291;BME280;32023;44.444;26.006;2023-05-23T06:53:00;100200.56;;;21.89;45.18
46291;BME280;32023;44.444;26.006;2023-05-23T06:55:29;100196.06;;;22.05;45.24
46291;BME280;32023;44.444;26.006;2023-05-23T06:58:00;100193.31;;;22.18;44.39
46291;BME280;32023;44.444;26.006;2023-05-23T07:00:29;100197.22;;;22.25;43.55
46291;BME280;32023;44.444;26.006;2023-05-23T07:02:58;100190.84;;;22.37;43.42
46291;BME280;32023;44.444;26.006;2023-05-23T07:05:29;100185.78;;;22.51;43.04
46291;BME280;32023;44.444;26.006;2023-05-23T07:08:04;100176.41;;;22.68;42.58
46291;BME280;32023;44.444;26.006;2023-05-23T07:10:31;100177.97;;;22.77;41.72
46291;BME280;32023;44.444;26.006;2023-05-23T07:13:01;100174.25;;;22.85;41.21
46291;BME280;32023;44.444;26.006;2023-05-23T07:15:28;100169.50;;;22.98;40.76
46291;BME280;32023;44.444;26.006;2023-05-23T07:17:57;100172.66;;;23.09;40.12
46291;BME280;32023;44.444;26.006;2023-05-23T07:20:24;100166.38;;;23.24;39.55
46291;BME280;32023;44.444;26.006;2023-05-23T07:22:56;100163.38;;;23.41;39.27
46291;BME280;32023;44.444;26.006;2023-05-23T07:25:26;100161.66;;;23.48;38.54
46291;BME280;32023;44.444;26.006;2023-05-23T07:27:53;100158.97;;;23.64;38.46
46291;BME280;32023;44.444;26.006;2023-05-23T07:30:30;100155.78;;;23.78;37.73
46291;BME280;32023;44.444;26.006;2023-05-23T07:33:04;100157.53;;;23.82;37.70
46291;BME280;32023;44.444;26.006;2023-05-23T07:35:34;100146.13;;;23.91;37.95
46291;BME280;32023;44.444;26.006;2023-05-23T07:38:00;100156.19;;;24.04;37.35
46291;BME280;32023;44.444;26.006;2023-05-23T07:40:29;100155.38;;;24.16;36.46
46291;BME280;32023;44.444;26.006;2023-05-23T07:43:05;100153.09;;;24.33;36.34
46291;BME280;32023;44.444;26.006;2023-05-23T07:45:31;100159.22;;;24.51;35.64
46291;BME280;32023;44.444;26.006;2023-05-23T07:47:59;100161.75;;;24.68;34.86
46291;BME280;32023;44.444;26.006;2023-05-23T07:50:26;100152.06;;;24.81;34.40
46291;BME280;32023;44.444;26.006;2023-05-23T07:52:53;100163.28;;;24.93;33.88
46291;BME280;32023;44.444;26.006;2023-05-23T07:55:20;100166.88;;;25.06;34.09
46291;BME280;32023;44.444;26.006;2023-05-23T07:57:46;100163.59;;;25.20;33.88
46291;BME280;32023;44.444;26.006;2023-05-23T08:00:14;100166.00;;;25.33;33.40
46291;BME280;32023;44.444;26.006;2023-05-23T08:02:43;100163.44;;;25.44;33.36
46291;BME280;32023;44.444;26.006;2023-05-23T08:05:13;100153.00;;;25.60;32.93
46291;BME280;32023;44.444;26.006;2023-05-23T08:07:46;100153.59;;;25.69;32.65
46291;BME280;32023;44.444;26.006;2023-05-23T08:10:23;100160.06;;;25.85;32.36
46291;BME280;32023;44.444;26.006;2023-05-23T08:12:53;100149.09;;;26.00;32.30
46291;BME280;32023;44.444;26.006;2023-05-23T08:15:19;100154.16;;;26.10;31.78
46291;BME280;32023;44.444;26.006;2023-05-23T08:17:48;100158.09;;;26.21;31.51
46291;BME280;32023;44.444;26.006;2023-05-23T08:20:19;100156.81;;;26.38;31.13
46291;BME280;32023;44.444;26.006;2023-05-23T08:22:45;100155.56;;;26.54;31.02
46291;BME280;32023;44.444;26.006;2023-05-23T08:25:15;100159.50;;;26.69;30.78
46291;BME280;32023;44.444;26.006;2023-05-23T08:27:41;100155.31;;;26.82;30.76
46291;BME280;32023;44.444;26.006;2023-05-23T08:30:24;100149.91;;;26.93;30.53
46291;BME280;32023;44.444;26.006;2023-05-23T08:32:55;100150.03;;;27.00;30.12
46291;BME280;32023;44.444;26.006;2023-05-23T08:35:22;100149.84;;;27.12;30.06
46291;BME280;32023;44.444;26.006;2023-05-23T08:37:48;100144.41;;;27.22;29.79
46291;BME280;32023;44.444;26.006;2023-05-23T08:40:19;100144.25;;;27.38;29.87
46291;BME280;32023;44.444;26.006;2023-05-23T08:42:49;100147.78;;;27.54;29.15
46291;BME280;32023;44.444;26.006;2023-05-23T08:45:16;100141.31;;;27.54;29.20
46291;BME280;32023;44.444;26.006;2023-05-23T08:47:44;100146.28;;;27.60;28.94
46291;BME280;32023;44.444;26.006;2023-05-23T08:50:15;100144.09;;;27.50;29.04
46291;BME280;32023;44.444;26.006;2023-05-23T08:53:05;100147.22;;;27.45;28.91
46291;BME280;32023;44.444;26.006;2023-05-23T08:55:34;100135.63;;;27.76;28.57
46291;BME280;32023;44.444;26.006;2023-05-23T08:58:03;100134.72;;;27.99;28.37
46291;BME280;32023;44.444;26.006;2023-05-23T09:00:31;100145.28;;;28.25;28.22
46291;BME280;32023;44.444;26.006;2023-05-23T09:02:58;100137.00;;;28.42;27.96
46291;BME280;32023;44.444;26.006;2023-05-23T09:05:26;100133.13;;;28.57;27.95
46291;BME280;32023;44.444;26.006;2023-05-23T09:07:52;100133.47;;;28.86;27.11
46291;BME280;32023;44.444;26.006;2023-05-23T09:10:19;100129.59;;;29.01;27.38
46291;BME280;32023;44.444;26.006;2023-05-23T09:12:49;100132.41;;;29.01;27.38
46291;BME280;32023;44.444;26.006;2023-05-23T09:15:24;100128.69;;;28.93;27.21
46291;BME280;32023;44.444;26.006;2023-05-23T09:17:52;100124.69;;;28.98;27.17
46291;BME280;32023;44.444;26.006;2023-05-23T09:20:18;100117.25;;;28.83;27.33
46291;BME280;32023;44.444;26.006;2023-05-23T09:22:48;100122.84;;;28.76;27.63
46291;BME280;32023;44.444;26.006;2023-05-23T09:25:22;100122.66;;;28.95;27.92
46291;BME280;32023;44.444;26.006;2023-05-23T09:27:50;100119.09;;;29.05;27.38
46291;BME280;32023;44.444;26.006;2023-05-23T09:30:20;100114.84;;;29.25;27.24
46291;BME280;32023;44.444;26.006;2023-05-23T09:32:58;100113.63;;;29.26;27.85
46291;BME280;32023;44.444;26.006;2023-05-23T09:35:28;100114.13;;;29.35;27.69
46291;BME280;32023;44.444;26.006;2023-05-23T09:37:57;100117.19;;;29.60;27.04
46291;BME280;32023;44.444;26.006;2023-05-23T09:40:43;100108.84;;;29.85;26.57
46291;BME280;32023;44.444;26.006;2023-05-23T09:43:10;100105.38;;;30.09;26.24
46291;BME280;32023;44.444;26.006;2023-05-23T09:45:36;100110.47;;;30.47;25.76
46291;BME280;32023;44.444;26.006;2023-05-23T09:48:03;100113.81;;;30.85;25.17
46291;BME280;32023;44.444;26.006;2023-05-23T09:50:34;100111.03;;;30.99;24.85
46291;BME280;32023;44.444;26.006;2023-05-23T09:53:01;100109.72;;;30.79;25.12
46291;BME280;32023;44.444;26.006;2023-05-23T09:55:31;100105.72;;;31.01;24.86
46291;BME280;32023;44.444;26.006;2023-05-23T09:57:59;100109.84;;;31.25;24.65
46291;BME280;32023;44.444;26.006;2023-05-23T10:00:26;100114.69;;;31.10;24.16
46291;BME280;32023;44.444;26.006;2023-05-23T10:08:01;100097.00;;;32.53;23.17
46291;BME280;32023;44.444;26.006;2023-05-23T10:10:31;100103.06;;;32.69;23.04
46291;BME280;32023;44.444;26.006;2023-05-23T10:13:02;100099.41;;;33.27;21.98
46291;BME280;32023;44.444;26.006;2023-05-23T10:15:47;100099.66;;;33.95;21.32
46291;BME280;32023;44.444;26.006;2023-05-23T10:18:22;100101.16;;;35.01;20.09
46291;BME280;32023;44.444;26.006;2023-05-23T10:21:06;100104.50;;;35.96;18.69
46291;BME280;32023;44.444;26.006;2023-05-23T10:23:35;100099.22;;;36.93;17.62
46291;BME280;32023;44.444;26.006;2023-05-23T10:26:07;100102.81;;;36.61;18.28
46291;BME280;32023;44.444;26.006;2023-05-23T10:28:36;100093.91;;;37.60;17.50
46291;BME280;32023;44.444;26.006;2023-05-23T10:31:06;100093.81;;;37.80;16.95
46291;BME280;32023;44.444;26.006;2023-05-23T10:33:37;100090.78;;;38.44;16.73
46291;BME280;32023;44.444;26.006;2023-05-23T10:36:22;100099.34;;;40.43;14.84
46291;BME280;32023;44.444;26.006;2023-05-23T10:41:58;100085.44;;;42.98;13.11
46291;BME280;32023;44.444;26.006;2023-05-23T10:44:38;100085.38;;;43.73;12.32
46291;BME280;32023;44.444;26.006;2023-05-23T10:47:04;100079.63;;;44.11;12.27
46291;BME280;32023;44.444;26.006;2023-05-23T10:49:44;100076.00;;;44.01;12.16
46291;BME280;32023;44.444;26.006;2023-05-23T10:52:17;100072.22;;;44.10;11.56
46291;BME280;32023;44.444;26.006;2023-05-23T10:54:57;100078.91;;;44.69;10.92
46291;BME280;32023;44.444;26.006;2023-05-23T10:57:29;100071.59;;;45.03;10.88
46291;BME280;32023;44.444;26.006;2023-05-23T10:59:56;100075.09;;;45.07;10.81
46291;BME280;32023;44.444;26.006;2023-05-23T11:02:26;100075.69;;;44.52;11.61
46291;BME280;32023;44.444;26.006;2023-05-23T11:05:18;100067.06;;;43.01;12.77
46291;BME280;32023;44.444;26.006;2023-05-23T11:08:07;100066.44;;;41.24;13.90
46291;BME280;32023;44.444;26.006;2023-05-23T11:13:19;100054.53;;;38.47;15.90
46291;BME280;32023;44.444;26.006;2023-05-23T11:15:47;100054.13;;;37.58;16.73
46291;BME280;32023;44.444;26.006;2023-05-23T11:18:21;100054.09;;;36.38;17.51
46291;BME280;32023;44.444;26.006;2023-05-23T11:20:50;100043.00;;;35.35;17.97
46291;BME280;32023;44.444;26.006;2023-05-23T11:23:17;100053.50;;;34.30;18.91
46291;BME280;32023;44.444;26.006;2023-05-23T11:25:49;100045.91;;;33.83;19.37
46291;BME280;32023;44.444;26.006;2023-05-23T11:28:19;100045.44;;;33.44;19.95
46291;BME280;32023;44.444;26.006;2023-05-23T11:30:49;100038.31;;;33.21;19.10
46291;BME280;32023;44.444;26.006;2023-05-23T11:33:16;100052.78;;;32.93;18.98
46291;BME280;32023;44.444;26.006;2023-05-23T11:35:56;100047.59;;;32.77;19.63
46291;BME280;32023;44.444;26.006;2023-05-23T11:38:32;100039.88;;;32.71;20.27
46291;BME280;32023;44.444;26.006;2023-05-23T11:41:02;100043.25;;;32.52;21.33
46291;BME280;32023;44.444;26.006;2023-05-23T11:43:31;100044.66;;;32.12;22.08
46291;BME280;32023;44.444;26.006;2023-05-23T11:46:07;100026.00;;;31.89;21.77
46291;BME280;32023;44.444;26.006;2023-05-23T11:48:49;100031.72;;;31.79;22.03
46291;BME280;32023;44.444;26.006;2023-05-23T11:51:22;100035.84;;;31.49;22.99
46291;BME280;32023;44.444;26.006;2023-05-23T11:53:48;100026.47;;;30.89;23.51
46291;BME280;32023;44.444;26.006;2023-05-23T11:56:15;100024.78;;;30.59;23.80
46291;BME280;32023;44.444;26.006;2023-05-23T11:58:41;100027.56;;;30.42;24.05
46291;BME280;32023;44.444;26.006;2023-05-23T12:01:12;100027.56;;;30.38;24.12
46291;BME280;32023;44.444;26.006;2023-05-23T12:03:52;100023.50;;;30.36;24.24
46291;BME280;32023;44.444;26.006;2023-05-23T12:06:21;100023.50;;;30.29;24.34
46291;BME280;32023;44.444;26.006;2023-05-23T12:08:52;100018.56;;;30.22;24.04
46291;BME280;32023;44.444;26.006;2023-05-23T12:11:19;100023.41;;;30.15;24.25
46291;BME280;32023;44.444;26.006;2023-05-23T12:13:48;100015.69;;;30.08;24.24
46291;BME280;32023;44.444;26.006;2023-05-23T12:16:21;100015.94;;;29.82;24.90
46291;BME280;32023;44.444;26.006;2023-05-23T12:18:52;100012.31;;;29.85;24.76
46291;BME280;32023;44.444;26.006;2023-05-23T12:21:25;100004.66;;;29.89;24.45
46291;BME280;32023;44.444;26.006;2023-05-23T12:23:56;100009.44;;;29.78;24.86
46291;BME280;32023;44.444;26.006;2023-05-23T12:26:23;100009.88;;;29.80;24.96
46291;BME280;32023;44.444;26.006;2023-05-23T12:28:49;100010.56;;;29.62;25.00
46291;BME280;32023;44.444;26.006;2023-05-23T12:31:17;100006.00;;;29.47;25.26
46291;BME280;32023;44.444;26.006;2023-05-23T12:33:45;99996.69;;;29.47;25.00
46291;BME280;32023;44.444;26.006;2023-05-23T12:36:13;100009.66;;;29.44;24.98
46291;BME280;32023;44.444;26.006;2023-05-23T12:38:41;100000.38;;;29.54;24.68
46291;BME280;32023;44.444;26.006;2023-05-23T12:41:18;100006.06;;;29.54;24.68
46291;BME280;32023;44.444;26.006;2023-05-23T12:43:52;100004.00;;;29.51;24.41
46291;BME280;32023;44.444;26.006;2023-05-23T12:46:33;99996.25;;;29.41;25.15
46291;BME280;32023;44.444;26.006;2023-05-23T12:49:00;99997.78;;;29.28;25.51
46291;BME280;32023;44.444;26.006;2023-05-23T12:51:26;99996.06;;;29.20;25.90
46291;BME280;32023;44.444;26.006;2023-05-23T12:53:54;99996.44;;;29.15;26.15
46291;BME280;32023;44.444;26.006;2023-05-23T12:56:20;99999.31;;;29.18;25.88
46291;BME280;32023;44.444;26.006;2023-05-23T12:58:50;99993.31;;;29.27;25.72
46291;BME280;32023;44.444;26.006;2023-05-23T13:01:16;99990.50;;;29.31;25.29
46291;BME280;32023;44.444;26.006;2023-05-23T13:03:42;99984.03;;;29.30;25.13
46291;BME280;32023;44.444;26.006;2023-05-23T13:06:09;99984.84;;;29.31;25.38
46291;BME280;32023;44.444;26.006;2023-05-23T13:08:35;99987.63;;;29.27;25.04
46291;BME280;32023;44.444;26.006;2023-05-23T13:11:02;99974.00;;;28.92;25.34
46291;BME280;32023;44.444;26.006;2023-05-23T13:13:28;99976.78;;;28.48;25.82
46291;BME280;32023;44.444;26.006;2023-05-23T13:15:55;99984.63;;;28.25;26.16
46291;BME280;32023;44.444;26.006;2023-05-23T13:18:22;99977.75;;;28.26;26.56
46291;BME280;32023;44.444;26.006;2023-05-23T13:21:11;99981.56;;;28.41;26.54
46291;BME280;32023;44.444;26.006;2023-05-23T13:23:37;99975.22;;;28.51;26.81